Virgo Phoenix — 3FMO8 — position and weather

sailwx.info

Track history (hours):
 
Tides and Currents Weather Stations Pressure Air Temp Water Temp Dewpoint Dewpoint Depression Visibility Wind Speed Wind Dir Waves Ship Positions

Virgo Phoenix

Last reported at 2014-Aug-23 03:33 UTC. Time now 2014-Aug-23 07:31 UTC.
Position N 35°31' E 139°55'.

Length 96 m; draft 6 m.

Type: Ship (hazmat cat B). MMSI: 370795000.

Date/timePositionNaut miles runAvg speedWind from/ knotsBaromVisibWave heightAir tempDewpointWater temp
2014-Aug-23 03:33N 35°31' E 139°55'0 0.0
2014-Aug-23 02:33N 35°31' E 139°55'0 0.0
2014-Aug-23 01:33N 35°31' E 139°55'0 0.0
2014-Aug-23 00:33N 35°31' E 139°55'0 0.0
2014-Aug-22 23:33N 35°31' E 139°55'0 0.0
2014-Aug-22 22:30N 35°31' E 139°55'0 0.0
2014-Aug-22 21:33N 35°31' E 139°55'0 0.0
2014-Aug-22 20:33N 35°31' E 139°55'0 0.0
2014-Aug-22 19:33N 35°31' E 139°55'0 0.0
2014-Aug-22 18:33N 35°31' E 139°55'6 6.2
2014-Aug-22 17:33N 35°34' E 140°02'4 3.5
2014-Aug-22 16:33N 35°36' E 140°05'0 0.0
2014-Aug-22 15:33N 35°36' E 140°05'0 0.0
2014-Aug-22 14:27N 35°36' E 140°05'0 0.0
2014-Aug-22 13:33N 35°36' E 140°05'0 0.0
2014-Aug-22 12:33N 35°36' E 140°05'0 0.0
2014-Aug-22 11:33N 35°36' E 140°05'0 0.0
2014-Aug-22 10:33N 35°36' E 140°05'0 0.0
2014-Aug-22 09:33N 35°36' E 140°05'0 0.0
2014-Aug-22 08:33N 35°36' E 140°05'0 0.0
2014-Aug-22 07:33N 35°36' E 140°05'0 0.0
2014-Aug-22 06:33N 35°36' E 140°05'0 0.0
2014-Aug-22 05:33N 35°36' E 140°05'7 6.7
2014-Aug-22 04:33N 35°33' E 139°58'1 1.3
2014-Aug-22 03:32N 35°34' E 139°58'0 0.0
2014-Aug-22 02:29N 35°34' E 139°58'0 0.0
2014-Aug-22 01:32N 35°34' E 139°58'0 0.0
2014-Aug-22 00:32N 35°34' E 139°58'0 0.0
2014-Aug-21 23:32N 35°34' E 139°58'4 4.1
2014-Aug-21 22:33N 35°31' E 139°55'7 5.7
2014-Aug-21 21:17N 35°31' E 139°46'0 0.0
2014-Aug-21 20:32N 35°31' E 139°46'0 0.0
2014-Aug-21 19:32N 35°31' E 139°46'0 0.0
2014-Aug-21 18:32N 35°31' E 139°46'0 0.0
2014-Aug-21 17:26N 35°31' E 139°46'0 0.0
2014-Aug-21 16:32N 35°31' E 139°46'0 0.0
2014-Aug-21 15:26N 35°31' E 139°46'0 0.0
2014-Aug-21 14:29N 35°31' E 139°46'0 0.0
2014-Aug-21 13:29N 35°31' E 139°46'0 0.0
2014-Aug-21 12:29N 35°31' E 139°46'0 0.0
2014-Aug-21 11:29N 35°31' E 139°46'0 0.0
2014-Aug-21 10:32N 35°31' E 139°46'0 0.0
2014-Aug-21 09:29N 35°31' E 139°46'0 0.0
2014-Aug-21 08:32N 35°31' E 139°46'0 0.0
2014-Aug-21 07:29N 35°31' E 139°46'0 0.0
2014-Aug-21 06:32N 35°31' E 139°46'0 0.0
2014-Aug-21 05:32N 35°31' E 139°46'4 4.5
2014-Aug-21 04:33N 35°28' E 139°42'2 1.6
2014-Aug-21 03:32N 35°28' E 139°44'5 4.9
2014-Aug-21 02:33N 35°23' E 139°46'1111.3
2014-Aug-21 01:33N 35°12' E 139°47'1212.0
2014-Aug-21 00:33N 35°02' E 139°39'1413.3
2014-Aug-20 23:28N 34°53' E 139°25'  
2014-Aug-16 00:04N 35°58' E 120°35'712.8
2014-Aug-15 23:33N 35°60' E 120°27'4 0.2
2014-Aug-15 00:33N 36°01' E 120°23'8 7.8
2014-Aug-14 23:28N 35°59' E 120°33'  
Track history (hours):
 
Tides and Currents Weather Stations Pressure Air Temp Water Temp Dewpoint Dewpoint Depression Visibility Wind Speed Wind Dir Waves Ship Positions

Virgo Phoenix

Last reported at 2014-Aug-23 03:33 UTC. Time now 2014-Aug-23 07:31 UTC.
Position N 35°31' E 139°55'.

Length 96 m; draft 6 m.

Type: Ship (hazmat cat B). MMSI: 370795000.

Date/timePositionNaut miles runAvg speedWind from/ knotsBaromVisibWave heightAir tempDewpointWater temp
2014-Aug-23 03:33N 35°31' E 139°55'0 0.0
2014-Aug-23 02:33N 35°31' E 139°55'0 0.0
2014-Aug-23 01:33N 35°31' E 139°55'0 0.0
2014-Aug-23 00:33N 35°31' E 139°55'0 0.0
2014-Aug-22 23:33N 35°31' E 139°55'0 0.0
2014-Aug-22 22:30N 35°31' E 139°55'0 0.0
2014-Aug-22 21:33N 35°31' E 139°55'0 0.0
2014-Aug-22 20:33N 35°31' E 139°55'0 0.0
2014-Aug-22 19:33N 35°31' E 139°55'0 0.0
2014-Aug-22 18:33N 35°31' E 139°55'6 6.2
2014-Aug-22 17:33N 35°34' E 140°02'4 3.5
2014-Aug-22 16:33N 35°36' E 140°05'0 0.0
2014-Aug-22 15:33N 35°36' E 140°05'0 0.0
2014-Aug-22 14:27N 35°36' E 140°05'0 0.0
2014-Aug-22 13:33N 35°36' E 140°05'0 0.0
2014-Aug-22 12:33N 35°36' E 140°05'0 0.0
2014-Aug-22 11:33N 35°36' E 140°05'0 0.0
2014-Aug-22 10:33N 35°36' E 140°05'0 0.0
2014-Aug-22 09:33N 35°36' E 140°05'0 0.0
2014-Aug-22 08:33N 35°36' E 140°05'0 0.0
2014-Aug-22 07:33N 35°36' E 140°05'0 0.0
2014-Aug-22 06:33N 35°36' E 140°05'0 0.0
2014-Aug-22 05:33N 35°36' E 140°05'7 6.7
2014-Aug-22 04:33N 35°33' E 139°58'1 1.3
2014-Aug-22 03:32N 35°34' E 139°58'0 0.0
2014-Aug-22 02:29N 35°34' E 139°58'0 0.0
2014-Aug-22 01:32N 35°34' E 139°58'0 0.0
2014-Aug-22 00:32N 35°34' E 139°58'0 0.0
2014-Aug-21 23:32N 35°34' E 139°58'4 4.1
2014-Aug-21 22:33N 35°31' E 139°55'7 5.7
2014-Aug-21 21:17N 35°31' E 139°46'0 0.0
2014-Aug-21 20:32N 35°31' E 139°46'0 0.0
2014-Aug-21 19:32N 35°31' E 139°46'0 0.0
2014-Aug-21 18:32N 35°31' E 139°46'0 0.0
2014-Aug-21 17:26N 35°31' E 139°46'0 0.0
2014-Aug-21 16:32N 35°31' E 139°46'0 0.0
2014-Aug-21 15:26N 35°31' E 139°46'0 0.0
2014-Aug-21 14:29N 35°31' E 139°46'0 0.0
2014-Aug-21 13:29N 35°31' E 139°46'0 0.0
2014-Aug-21 12:29N 35°31' E 139°46'0 0.0
2014-Aug-21 11:29N 35°31' E 139°46'0 0.0
2014-Aug-21 10:32N 35°31' E 139°46'0 0.0
2014-Aug-21 09:29N 35°31' E 139°46'0 0.0
2014-Aug-21 08:32N 35°31' E 139°46'0 0.0
2014-Aug-21 07:29N 35°31' E 139°46'0 0.0
2014-Aug-21 06:32N 35°31' E 139°46'0 0.0
2014-Aug-21 05:32N 35°31' E 139°46'4 4.5
2014-Aug-21 04:33N 35°28' E 139°42'2 1.6
2014-Aug-21 03:32N 35°28' E 139°44'5 4.9
2014-Aug-21 02:33N 35°23' E 139°46'1111.3
2014-Aug-21 01:33N 35°12' E 139°47'1212.0
2014-Aug-21 00:33N 35°02' E 139°39'1413.3
2014-Aug-20 23:28N 34°53' E 139°25'  
2014-Aug-16 00:04N 35°58' E 120°35'712.8
2014-Aug-15 23:33N 35°60' E 120°27'4 0.2
2014-Aug-15 00:33N 36°01' E 120°23'8 7.8
2014-Aug-14 23:28N 35°59' E 120°33'  

Dump ship's entire track history